sensor_id;sensor_type;location;lat;lon;timestamp;P1;durP1;ratioP1;P2;durP2;ratioP2
4597;SDS011;62772;48.646;8.906;2023-06-24T00:03:47;8.67;;;5.83;;
4597;SDS011;62772;48.646;8.906;2023-06-24T00:08:48;9.30;;;6.20;;
4597;SDS011;62772;48.646;8.906;2023-06-24T00:13:49;12.23;;;6.07;;
4597;SDS011;62772;48.646;8.906;2023-06-24T00:18:49;10.57;;;7.00;;
4597;SDS011;62772;48.646;8.906;2023-06-24T00:23:51;10.47;;;6.60;;
4597;SDS011;62772;48.646;8.906;2023-06-24T00:28:51;11.77;;;6.87;;
4597;SDS011;62772;48.646;8.906;2023-06-24T00:33:52;9.90;;;6.70;;
4597;SDS011;62772;48.646;8.906;2023-06-24T00:38:55;13.83;;;6.60;;
4597;SDS011;62772;48.646;8.906;2023-06-24T00:43:57;9.90;;;6.47;;
4597;SDS011;62772;48.646;8.906;2023-06-24T00:48:58;10.67;;;6.27;;
4597;SDS011;62772;48.646;8.906;2023-06-24T00:54:00;11.90;;;6.30;;
4597;SDS011;62772;48.646;8.906;2023-06-24T00:59:02;10.47;;;6.60;;
4597;SDS011;62772;48.646;8.906;2023-06-24T01:04:03;10.90;;;6.80;;
4597;SDS011;62772;48.646;8.906;2023-06-24T01:09:06;9.33;;;6.20;;
4597;SDS011;62772;48.646;8.906;2023-06-24T01:14:07;11.27;;;6.70;;
4597;SDS011;62772;48.646;8.906;2023-06-24T01:25:02;9.77;;;6.60;;
4597;SDS011;62772;48.646;8.906;2023-06-24T01:35:42;9.83;;;6.23;;
4597;SDS011;62772;48.646;8.906;2023-06-24T01:40:44;8.90;;;6.30;;
4597;SDS011;62772;48.646;8.906;2023-06-24T01:45:48;12.57;;;7.73;;
4597;SDS011;62772;48.646;8.906;2023-06-24T01:51:00;18.77;;;7.70;;
4597;SDS011;62772;48.646;8.906;2023-06-24T01:56:07;9.80;;;6.50;;
4597;SDS011;62772;48.646;8.906;2023-06-24T02:01:09;9.50;;;6.70;;
4597;SDS011;62772;48.646;8.906;2023-06-24T02:06:10;12.77;;;6.60;;
4597;SDS011;62772;48.646;8.906;2023-06-24T02:11:13;13.03;;;7.00;;
4597;SDS011;62772;48.646;8.906;2023-06-24T02:16:16;12.30;;;7.60;;
4597;SDS011;62772;48.646;8.906;2023-06-24T02:21:17;10.80;;;6.77;;
4597;SDS011;62772;48.646;8.906;2023-06-24T02:26:19;10.50;;;6.10;;
4597;SDS011;62772;48.646;8.906;2023-06-24T02:31:22;9.97;;;6.20;;
4597;SDS011;62772;48.646;8.906;2023-06-24T02:36:22;9.90;;;6.70;;
4597;SDS011;62772;48.646;8.906;2023-06-24T02:41:23;12.30;;;7.60;;
4597;SDS011;62772;48.646;8.906;2023-06-24T02:46:24;10.40;;;6.50;;
4597;SDS011;62772;48.646;8.906;2023-06-24T02:51:29;10.00;;;7.07;;
4597;SDS011;62772;48.646;8.906;2023-06-24T02:56:31;9.33;;;6.67;;
4597;SDS011;62772;48.646;8.906;2023-06-24T03:01:32;9.63;;;6.33;;
4597;SDS011;62772;48.646;8.906;2023-06-24T03:06:38;12.13;;;7.10;;
4597;SDS011;62772;48.646;8.906;2023-06-24T03:11:40;12.37;;;6.70;;
4597;SDS011;62772;48.646;8.906;2023-06-24T03:16:43;12.77;;;7.50;;
4597;SDS011;62772;48.646;8.906;2023-06-24T03:21:50;11.73;;;7.23;;
4597;SDS011;62772;48.646;8.906;2023-06-24T03:26:51;14.17;;;6.90;;
4597;SDS011;62772;48.646;8.906;2023-06-24T03:31:59;11.87;;;7.53;;
4597;SDS011;62772;48.646;8.906;2023-06-24T03:37:01;11.73;;;7.43;;
4597;SDS011;62772;48.646;8.906;2023-06-24T03:42:05;11.03;;;7.70;;
4597;SDS011;62772;48.646;8.906;2023-06-24T03:47:06;12.13;;;7.53;;
4597;SDS011;62772;48.646;8.906;2023-06-24T03:52:06;13.53;;;7.97;;
4597;SDS011;62772;48.646;8.906;2023-06-24T03:57:09;10.43;;;7.30;;
4597;SDS011;62772;48.646;8.906;2023-06-24T04:02:10;12.73;;;7.80;;
4597;SDS011;62772;48.646;8.906;2023-06-24T04:07:10;11.30;;;7.23;;
4597;SDS011;62772;48.646;8.906;2023-06-24T04:12:11;12.10;;;8.10;;
4597;SDS011;62772;48.646;8.906;2023-06-24T04:17:12;16.67;;;8.30;;
4597;SDS011;62772;48.646;8.906;2023-06-24T04:22:12;11.20;;;7.60;;
4597;SDS011;62772;48.646;8.906;2023-06-24T04:27:13;11.47;;;7.50;;
4597;SDS011;62772;48.646;8.906;2023-06-24T04:32:13;11.67;;;7.63;;
4597;SDS011;62772;48.646;8.906;2023-06-24T04:37:14;10.73;;;7.30;;
4597;SDS011;62772;48.646;8.906;2023-06-24T04:42:14;12.03;;;7.97;;
4597;SDS011;62772;48.646;8.906;2023-06-24T04:47:15;10.23;;;7.23;;
4597;SDS011;62772;48.646;8.906;2023-06-24T04:52:15;11.40;;;8.20;;
4597;SDS011;62772;48.646;8.906;2023-06-24T04:57:23;14.10;;;8.10;;
4597;SDS011;62772;48.646;8.906;2023-06-24T05:02:27;14.13;;;7.77;;
4597;SDS011;62772;48.646;8.906;2023-06-24T05:07:28;13.67;;;9.20;;
4597;SDS011;62772;48.646;8.906;2023-06-24T05:12:28;16.00;;;9.10;;
4597;SDS011;62772;48.646;8.906;2023-06-24T05:17:29;13.67;;;8.60;;
4597;SDS011;62772;48.646;8.906;2023-06-24T05:22:29;15.30;;;8.73;;
4597;SDS011;62772;48.646;8.906;2023-06-24T05:27:30;13.70;;;9.80;;
4597;SDS011;62772;48.646;8.906;2023-06-24T05:32:30;15.40;;;8.83;;
4597;SDS011;62772;48.646;8.906;2023-06-24T05:37:30;12.70;;;8.90;;
4597;SDS011;62772;48.646;8.906;2023-06-24T05:42:31;10.80;;;7.30;;
4597;SDS011;62772;48.646;8.906;2023-06-24T05:47:32;13.47;;;8.00;;
4597;SDS011;62772;48.646;8.906;2023-06-24T05:52:32;13.67;;;8.50;;
4597;SDS011;62772;48.646;8.906;2023-06-24T05:57:33;15.30;;;8.60;;
4597;SDS011;62772;48.646;8.906;2023-06-24T06:02:33;21.70;;;8.60;;
4597;SDS011;62772;48.646;8.906;2023-06-24T06:07:34;14.17;;;7.90;;
4597;SDS011;62772;48.646;8.906;2023-06-24T06:12:36;12.80;;;8.73;;
4597;SDS011;62772;48.646;8.906;2023-06-24T06:17:37;13.60;;;8.83;;
4597;SDS011;62772;48.646;8.906;2023-06-24T06:22:38;12.87;;;7.33;;
4597;SDS011;62772;48.646;8.906;2023-06-24T06:27:39;11.30;;;6.97;;
4597;SDS011;62772;48.646;8.906;2023-06-24T06:32:39;13.23;;;7.20;;
4597;SDS011;62772;48.646;8.906;2023-06-24T06:37:40;11.10;;;7.07;;
4597;SDS011;62772;48.646;8.906;2023-06-24T06:42:40;11.10;;;6.33;;
4597;SDS011;62772;48.646;8.906;2023-06-24T06:47:41;7.70;;;5.70;;
4597;SDS011;62772;48.646;8.906;2023-06-24T06:52:41;10.10;;;5.80;;
4597;SDS011;62772;48.646;8.906;2023-06-24T06:57:41;9.13;;;5.90;;
4597;SDS011;62772;48.646;8.906;2023-06-24T07:02:42;9.20;;;5.47;;
4597;SDS011;62772;48.646;8.906;2023-06-24T07:07:43;9.87;;;6.33;;
4597;SDS011;62772;48.646;8.906;2023-06-24T07:12:45;8.80;;;5.43;;
4597;SDS011;62772;48.646;8.906;2023-06-24T07:17:46;8.30;;;5.53;;
4597;SDS011;62772;48.646;8.906;2023-06-24T07:22:46;11.33;;;5.63;;
4597;SDS011;62772;48.646;8.906;2023-06-24T07:27:47;7.20;;;5.17;;
4597;SDS011;62772;48.646;8.906;2023-06-24T07:32:47;8.70;;;4.70;;
4597;SDS011;62772;48.646;8.906;2023-06-24T07:37:48;6.00;;;4.40;;
4597;SDS011;62772;48.646;8.906;2023-06-24T07:42:48;6.30;;;4.23;;
4597;SDS011;62772;48.646;8.906;2023-06-24T07:47:49;7.30;;;4.10;;
4597;SDS011;62772;48.646;8.906;2023-06-24T07:52:50;6.87;;;4.30;;
4597;SDS011;62772;48.646;8.906;2023-06-24T07:57:50;6.90;;;4.23;;
4597;SDS011;62772;48.646;8.906;2023-06-24T08:02:51;7.13;;;4.77;;
4597;SDS011;62772;48.646;8.906;2023-06-24T08:07:51;7.30;;;4.53;;
4597;SDS011;62772;48.646;8.906;2023-06-24T08:12:52;7.53;;;4.20;;
4597;SDS011;62772;48.646;8.906;2023-06-24T08:17:52;7.23;;;3.97;;
4597;SDS011;62772;48.646;8.906;2023-06-24T08:22:53;8.63;;;4.70;;
4597;SDS011;62772;48.646;8.906;2023-06-24T08:27:53;6.23;;;4.40;;
4597;SDS011;62772;48.646;8.906;2023-06-24T08:32:55;7.90;;;4.30;;
4597;SDS011;62772;48.646;8.906;2023-06-24T08:37:55;7.30;;;4.23;;
4597;SDS011;62772;48.646;8.906;2023-06-24T08:42:56;7.43;;;4.80;;
4597;SDS011;62772;48.646;8.906;2023-06-24T08:47:58;6.93;;;4.27;;
4597;SDS011;62772;48.646;8.906;2023-06-24T08:53:02;6.70;;;4.10;;
4597;SDS011;62772;48.646;8.906;2023-06-24T08:58:07;6.77;;;4.23;;
4597;SDS011;62772;48.646;8.906;2023-06-24T09:03:08;6.97;;;3.80;;
4597;SDS011;62772;48.646;8.906;2023-06-24T09:08:08;6.57;;;4.10;;
4597;SDS011;62772;48.646;8.906;2023-06-24T09:13:09;6.10;;;4.07;;
4597;SDS011;62772;48.646;8.906;2023-06-24T09:18:09;7.73;;;4.50;;
4597;SDS011;62772;48.646;8.906;2023-06-24T09:23:10;6.80;;;4.30;;
4597;SDS011;62772;48.646;8.906;2023-06-24T09:28:12;6.73;;;4.20;;
4597;SDS011;62772;48.646;8.906;2023-06-24T09:33:13;7.53;;;4.57;;
4597;SDS011;62772;48.646;8.906;2023-06-24T09:38:13;11.83;;;4.33;;
4597;SDS011;62772;48.646;8.906;2023-06-24T09:43:19;5.40;;;4.00;;
4597;SDS011;62772;48.646;8.906;2023-06-24T09:48:20;5.57;;;4.20;;
4597;SDS011;62772;48.646;8.906;2023-06-24T09:53:21;5.80;;;4.00;;
4597;SDS011;62772;48.646;8.906;2023-06-24T09:58:22;6.07;;;3.80;;
4597;SDS011;62772;48.646;8.906;2023-06-24T10:03:24;6.50;;;4.03;;
4597;SDS011;62772;48.646;8.906;2023-06-24T10:08:24;5.20;;;3.60;;
4597;SDS011;62772;48.646;8.906;2023-06-24T10:13:27;6.57;;;3.67;;
4597;SDS011;62772;48.646;8.906;2023-06-24T10:23:32;5.80;;;3.47;;
4597;SDS011;62772;48.646;8.906;2023-06-24T10:29:07;5.90;;;4.40;;
4597;SDS011;62772;48.646;8.906;2023-06-24T10:44:51;6.20;;;3.80;;
4597;SDS011;62772;48.646;8.906;2023-06-24T10:49:52;7.90;;;3.90;;
4597;SDS011;62772;48.646;8.906;2023-06-24T10:54:53;5.80;;;3.87;;
4597;SDS011;62772;48.646;8.906;2023-06-24T10:59:54;8.90;;;3.90;;
4597;SDS011;62772;48.646;8.906;2023-06-24T11:04:57;8.50;;;4.23;;
4597;SDS011;62772;48.646;8.906;2023-06-24T11:10:01;5.20;;;3.50;;
4597;SDS011;62772;48.646;8.906;2023-06-24T11:15:06;5.10;;;3.70;;
4597;SDS011;62772;48.646;8.906;2023-06-24T11:20:09;4.70;;;3.33;;
4597;SDS011;62772;48.646;8.906;2023-06-24T11:25:14;5.93;;;3.60;;
4597;SDS011;62772;48.646;8.906;2023-06-24T11:30:16;5.20;;;3.57;;
4597;SDS011;62772;48.646;8.906;2023-06-24T11:35:17;5.60;;;3.80;;
4597;SDS011;62772;48.646;8.906;2023-06-24T11:40:18;5.47;;;3.57;;
4597;SDS011;62772;48.646;8.906;2023-06-24T11:45:20;10.30;;;3.70;;
4597;SDS011;62772;48.646;8.906;2023-06-24T11:50:25;5.50;;;3.60;;
4597;SDS011;62772;48.646;8.906;2023-06-24T11:55:27;5.27;;;3.60;;
4597;SDS011;62772;48.646;8.906;2023-06-24T12:00:29;5.65;;;3.80;;
4597;SDS011;62772;48.646;8.906;2023-06-24T12:05:33;5.60;;;3.57;;
4597;SDS011;62772;48.646;8.906;2023-06-24T12:10:36;7.03;;;3.67;;
4597;SDS011;62772;48.646;8.906;2023-06-24T12:15:37;7.50;;;3.67;;
4597;SDS011;62772;48.646;8.906;2023-06-24T12:20:38;5.60;;;3.90;;
4597;SDS011;62772;48.646;8.906;2023-06-24T12:25:38;4.63;;;3.27;;
4597;SDS011;62772;48.646;8.906;2023-06-24T12:30:39;5.60;;;3.90;;
4597;SDS011;62772;48.646;8.906;2023-06-24T12:35:39;5.93;;;3.72;;
4597;SDS011;62772;48.646;8.906;2023-06-24T12:40:40;6.68;;;3.67;;
4597;SDS011;62772;48.646;8.906;2023-06-24T12:45:40;4.93;;;3.50;;
4597;SDS011;62772;48.646;8.906;2023-06-24T12:50:44;4.97;;;2.87;;
4597;SDS011;62772;48.646;8.906;2023-06-24T12:55:45;5.55;;;3.45;;
4597;SDS011;62772;48.646;8.906;2023-06-24T13:00:46;7.43;;;3.60;;
4597;SDS011;62772;48.646;8.906;2023-06-24T13:05:46;7.73;;;3.70;;
4597;SDS011;62772;48.646;8.906;2023-06-24T13:10:46;5.10;;;3.27;;
4597;SDS011;62772;48.646;8.906;2023-06-24T13:15:47;6.03;;;3.57;;
4597;SDS011;62772;48.646;8.906;2023-06-24T13:20:47;5.00;;;3.40;;
4597;SDS011;62772;48.646;8.906;2023-06-24T13:25:48;6.57;;;3.08;;
4597;SDS011;62772;48.646;8.906;2023-06-24T13:30:58;5.03;;;3.13;;
4597;SDS011;62772;48.646;8.906;2023-06-24T13:35:59;4.80;;;3.30;;
4597;SDS011;62772;48.646;8.906;2023-06-24T13:40:59;7.00;;;3.30;;
4597;SDS011;62772;48.646;8.906;2023-06-24T13:46:00;4.15;;;3.15;;
4597;SDS011;62772;48.646;8.906;2023-06-24T13:51:00;4.93;;;3.35;;
4597;SDS011;62772;48.646;8.906;2023-06-24T13:56:01;5.68;;;3.30;;
4597;SDS011;62772;48.646;8.906;2023-06-24T14:01:01;4.70;;;3.13;;
4597;SDS011;62772;48.646;8.906;2023-06-24T14:06:02;6.68;;;3.42;;
4597;SDS011;62772;48.646;8.906;2023-06-24T14:11:03;6.35;;;3.33;;
4597;SDS011;62772;48.646;8.906;2023-06-24T14:16:04;4.45;;;3.15;;
4597;SDS011;62772;48.646;8.906;2023-06-24T14:21:05;5.25;;;2.92;;
4597;SDS011;62772;48.646;8.906;2023-06-24T14:26:07;6.15;;;3.28;;
4597;SDS011;62772;48.646;8.906;2023-06-24T14:31:07;5.25;;;3.25;;
4597;SDS011;62772;48.646;8.906;2023-06-24T14:36:08;6.25;;;3.60;;
4597;SDS011;62772;48.646;8.906;2023-06-24T14:41:08;5.18;;;3.35;;
4597;SDS011;62772;48.646;8.906;2023-06-24T14:46:09;5.80;;;3.47;;
4597;SDS011;62772;48.646;8.906;2023-06-24T14:51:09;5.03;;;3.72;;
4597;SDS011;62772;48.646;8.906;2023-06-24T14:56:09;4.75;;;3.17;;
4597;SDS011;62772;48.646;8.906;2023-06-24T15:01:10;5.45;;;3.25;;
4597;SDS011;62772;48.646;8.906;2023-06-24T15:06:10;5.20;;;3.22;;
4597;SDS011;62772;48.646;8.906;2023-06-24T15:11:11;4.93;;;3.47;;
4597;SDS011;62772;48.646;8.906;2023-06-24T15:16:11;6.25;;;3.60;;
4597;SDS011;62772;48.646;8.906;2023-06-24T15:21:12;4.75;;;3.05;;
4597;SDS011;62772;48.646;8.906;2023-06-24T15:26:16;5.90;;;3.75;;
4597;SDS011;62772;48.646;8.906;2023-06-24T15:31:16;6.00;;;3.95;;
4597;SDS011;62772;48.646;8.906;2023-06-24T15:36:17;5.43;;;3.63;;
4597;SDS011;62772;48.646;8.906;2023-06-24T15:41:17;6.85;;;4.30;;
4597;SDS011;62772;48.646;8.906;2023-06-24T15:46:18;5.45;;;3.42;;
4597;SDS011;62772;48.646;8.906;2023-06-24T15:51:18;6.60;;;4.18;;
4597;SDS011;62772;48.646;8.906;2023-06-24T15:56:19;4.57;;;3.20;;
4597;SDS011;62772;48.646;8.906;2023-06-24T16:01:20;5.40;;;3.40;;
4597;SDS011;62772;48.646;8.906;2023-06-24T16:06:20;4.82;;;3.45;;
4597;SDS011;62772;48.646;8.906;2023-06-24T16:11:20;5.38;;;3.30;;
4597;SDS011;62772;48.646;8.906;2023-06-24T16:16:21;4.78;;;3.53;;
4597;SDS011;62772;48.646;8.906;2023-06-24T16:21:21;5.18;;;3.63;;
4597;SDS011;62772;48.646;8.906;2023-06-24T16:26:22;4.53;;;3.22;;
4597;SDS011;62772;48.646;8.906;2023-06-24T16:31:22;5.53;;;3.63;;
4597;SDS011;62772;48.646;8.906;2023-06-24T16:36:23;6.35;;;3.40;;
4597;SDS011;62772;48.646;8.906;2023-06-24T16:41:23;4.95;;;3.42;;
4597;SDS011;62772;48.646;8.906;2023-06-24T16:46:23;4.75;;;3.22;;
4597;SDS011;62772;48.646;8.906;2023-06-24T16:51:26;5.38;;;3.85;;
4597;SDS011;62772;48.646;8.906;2023-06-24T16:56:26;5.07;;;3.53;;
4597;SDS011;62772;48.646;8.906;2023-06-24T17:01:27;4.18;;;3.17;;
4597;SDS011;62772;48.646;8.906;2023-06-24T17:06:27;6.53;;;3.85;;
4597;SDS011;62772;48.646;8.906;2023-06-24T17:11:28;7.28;;;4.13;;
4597;SDS011;62772;48.646;8.906;2023-06-24T17:16:28;4.60;;;3.25;;
4597;SDS011;62772;48.646;8.906;2023-06-24T17:21:29;4.30;;;3.17;;
4597;SDS011;62772;48.646;8.906;2023-06-24T17:26:29;5.25;;;3.38;;
4597;SDS011;62772;48.646;8.906;2023-06-24T17:31:30;7.72;;;5.32;;
4597;SDS011;62772;48.646;8.906;2023-06-24T17:36:30;4.72;;;3.50;;
4597;SDS011;62772;48.646;8.906;2023-06-24T17:41:30;7.03;;;3.63;;
4597;SDS011;62772;48.646;8.906;2023-06-24T17:46:31;6.18;;;3.95;;
4597;SDS011;62772;48.646;8.906;2023-06-24T17:51:31;4.50;;;3.28;;
4597;SDS011;62772;48.646;8.906;2023-06-24T17:56:32;4.88;;;3.28;;
4597;SDS011;62772;48.646;8.906;2023-06-24T18:01:34;5.45;;;3.50;;
4597;SDS011;62772;48.646;8.906;2023-06-24T18:06:34;4.82;;;3.03;;
4597;SDS011;62772;48.646;8.906;2023-06-24T18:11:35;6.22;;;3.83;;
4597;SDS011;62772;48.646;8.906;2023-06-24T18:16:39;5.57;;;3.15;;
4597;SDS011;62772;48.646;8.906;2023-06-24T18:21:40;5.28;;;3.50;;
4597;SDS011;62772;48.646;8.906;2023-06-24T18:26:41;8.00;;;3.67;;
4597;SDS011;62772;48.646;8.906;2023-06-24T18:31:42;9.00;;;3.58;;
4597;SDS011;62772;48.646;8.906;2023-06-24T18:36:42;6.15;;;3.25;;
4597;SDS011;62772;48.646;8.906;2023-06-24T18:41:43;4.65;;;3.10;;
4597;SDS011;62772;48.646;8.906;2023-06-24T18:46:44;4.93;;;3.17;;
4597;SDS011;62772;48.646;8.906;2023-06-24T18:51:45;5.38;;;3.38;;
4597;SDS011;62772;48.646;8.906;2023-06-24T18:56:45;4.43;;;2.90;;
4597;SDS011;62772;48.646;8.906;2023-06-24T19:01:46;4.53;;;2.88;;
4597;SDS011;62772;48.646;8.906;2023-06-24T19:06:46;5.72;;;3.75;;
4597;SDS011;62772;48.646;8.906;2023-06-24T19:11:47;5.88;;;3.38;;
4597;SDS011;62772;48.646;8.906;2023-06-24T19:16:47;5.53;;;3.60;;
4597;SDS011;62772;48.646;8.906;2023-06-24T19:21:47;5.68;;;3.40;;
4597;SDS011;62772;48.646;8.906;2023-06-24T19:26:49;5.13;;;3.30;;
4597;SDS011;62772;48.646;8.906;2023-06-24T19:31:50;6.45;;;3.90;;
4597;SDS011;62772;48.646;8.906;2023-06-24T19:36:50;6.10;;;3.60;;
4597;SDS011;62772;48.646;8.906;2023-06-24T19:41:51;4.78;;;3.60;;
4597;SDS011;62772;48.646;8.906;2023-06-24T19:46:52;5.38;;;3.75;;
4597;SDS011;62772;48.646;8.906;2023-06-24T19:51:53;5.18;;;3.63;;
4597;SDS011;62772;48.646;8.906;2023-06-24T19:56:54;6.43;;;3.25;;
4597;SDS011;62772;48.646;8.906;2023-06-24T20:01:54;6.25;;;3.58;;
4597;SDS011;62772;48.646;8.906;2023-06-24T20:06:55;6.38;;;3.75;;
4597;SDS011;62772;48.646;8.906;2023-06-24T20:11:55;6.57;;;4.20;;
4597;SDS011;62772;48.646;8.906;2023-06-24T20:16:57;5.93;;;4.15;;
4597;SDS011;62772;48.646;8.906;2023-06-24T20:21:57;6.90;;;4.30;;
4597;SDS011;62772;48.646;8.906;2023-06-24T20:26:58;5.90;;;4.05;;
4597;SDS011;62772;48.646;8.906;2023-06-24T20:31:58;6.75;;;4.18;;
4597;SDS011;62772;48.646;8.906;2023-06-24T20:36:59;5.35;;;3.85;;
4597;SDS011;62772;48.646;8.906;2023-06-24T20:41:59;6.45;;;4.18;;
4597;SDS011;62772;48.646;8.906;2023-06-24T20:47:00;6.25;;;4.30;;
4597;SDS011;62772;48.646;8.906;2023-06-24T20:52:00;5.82;;;4.30;;
4597;SDS011;62772;48.646;8.906;2023-06-24T20:57:01;8.77;;;3.88;;
4597;SDS011;62772;48.646;8.906;2023-06-24T21:02:01;6.22;;;4.20;;
4597;SDS011;62772;48.646;8.906;2023-06-24T21:07:02;6.97;;;4.25;;
4597;SDS011;62772;48.646;8.906;2023-06-24T21:12:03;6.70;;;4.28;;
4597;SDS011;62772;48.646;8.906;2023-06-24T21:17:04;5.00;;;3.97;;
4597;SDS011;62772;48.646;8.906;2023-06-24T21:22:04;7.28;;;4.22;;
4597;SDS011;62772;48.646;8.906;2023-06-24T21:27:05;7.53;;;4.90;;
4597;SDS011;62772;48.646;8.906;2023-06-24T21:32:05;8.23;;;5.13;;
4597;SDS011;62772;48.646;8.906;2023-06-24T21:37:06;6.40;;;4.47;;
4597;SDS011;62772;48.646;8.906;2023-06-24T21:42:07;8.27;;;5.30;;
4597;SDS011;62772;48.646;8.906;2023-06-24T21:47:07;7.93;;;5.10;;
4597;SDS011;62772;48.646;8.906;2023-06-24T21:52:08;9.80;;;4.70;;
4597;SDS011;62772;48.646;8.906;2023-06-24T21:57:08;6.50;;;4.50;;
4597;SDS011;62772;48.646;8.906;2023-06-24T22:02:09;8.13;;;5.30;;
4597;SDS011;62772;48.646;8.906;2023-06-24T22:07:09;9.30;;;5.27;;
4597;SDS011;62772;48.646;8.906;2023-06-24T22:12:10;13.83;;;4.60;;
4597;SDS011;62772;48.646;8.906;2023-06-24T22:17:10;7.13;;;4.27;;
4597;SDS011;62772;48.646;8.906;2023-06-24T22:22:11;6.20;;;4.07;;
4597;SDS011;62772;48.646;8.906;2023-06-24T22:27:11;6.77;;;4.57;;
4597;SDS011;62772;48.646;8.906;2023-06-24T22:32:13;7.33;;;4.87;;
4597;SDS011;62772;48.646;8.906;2023-06-24T22:37:15;7.87;;;4.80;;
4597;SDS011;62772;48.646;8.906;2023-06-24T22:42:15;8.90;;;5.50;;
4597;SDS011;62772;48.646;8.906;2023-06-24T22:47:16;7.77;;;5.10;;
4597;SDS011;62772;48.646;8.906;2023-06-24T22:52:16;8.20;;;4.70;;
4597;SDS011;62772;48.646;8.906;2023-06-24T22:57:16;8.40;;;5.50;;
4597;SDS011;62772;48.646;8.906;2023-06-24T23:02:17;7.67;;;4.90;;
4597;SDS011;62772;48.646;8.906;2023-06-24T23:07:18;7.30;;;4.67;;
4597;SDS011;62772;48.646;8.906;2023-06-24T23:12:19;7.43;;;4.90;;
4597;SDS011;62772;48.646;8.906;2023-06-24T23:17:21;6.50;;;4.73;;
4597;SDS011;62772;48.646;8.906;2023-06-24T23:22:23;7.70;;;5.10;;
4597;SDS011;62772;48.646;8.906;2023-06-24T23:27:24;7.97;;;4.90;;
4597;SDS011;62772;48.646;8.906;2023-06-24T23:32:35;9.73;;;5.17;;
4597;SDS011;62772;48.646;8.906;2023-06-24T23:37:37;7.20;;;5.30;;
4597;SDS011;62772;48.646;8.906;2023-06-24T23:42:38;7.27;;;5.00;;
4597;SDS011;62772;48.646;8.906;2023-06-24T23:47:41;8.47;;;5.00;;
4597;SDS011;62772;48.646;8.906;2023-06-24T23:52:41;7.50;;;4.87;;
4597;SDS011;62772;48.646;8.906;2023-06-24T23:57:42;9.57;;;5.10;;
